West Jordan East
, West Jordan
Last Weather Update:6/29/2011 11:00:00 PM
Date
ETo
ETc
Rain
Irrigation
Req
Temp
Max
Temp
Min
Temp
Avg
Avg RH
Avg Wind
Avg Solar
inches
inches
incehs
inches
F
F
F
%
%
watts/m2
5/1/2011 0.16" 0.10" 0.00" 0.10" 53.0° 26.8° 42.2° 55.1% 4.3 MPH 338.0w/m2
5/2/2011 0.17" 0.11" 0.00" 0.11" 60.9° 29.8° 47.5° 48.2% 3.6 MPH 321.0w/m2
5/3/2011 0.15" 0.10" 0.00" 0.10" 61.7° 44.9° 53.8° 46.9% 7.5 MPH 185.0w/m2
5/4/2011 0.17" 0.11" 0.00" 0.11" 55.0° 34.8° 47.1° 49.4% 5.1 MPH 339.0w/m2
5/5/2011 0.21" 0.14" 0.00" 0.14" 73.6° 32.0° 54.5° 41.4% 4.3 MPH 330.0w/m2
5/6/2011 0.20" 0.13" 0.00" 0.13" 72.0° 48.7° 61.6° 43.7% 3.5 MPH 311.0w/m2
5/7/2011 0.21" 0.13" 0.00" 0.13" 73.1° 50.1° 62.9° 49.4% 4.6 MPH 311.0w/m2
5/8/2011 0.06" 0.04" 0.51" -0.37" 67.4° 42.1° 52.0° 80.2% 5.4 MPH 75.0w/m2
5/9/2011 0.04" 0.02" 0.28" -0.20" 43.8° 39.8° 41.7° 97.4% 4.4 MPH 94.0w/m2
5/10/2011 0.09" 0.06" 0.00" 0.06" 52.8° 40.2° 46.0° 82.8% 4.4 MPH 198.0w/m2
5/11/2011 0.14" 0.10" 0.00" 0.10" 59.7° 43.5° 50.9° 72.5% 4.5 MPH 291.0w/m2
5/12/2011 0.20" 0.13" 0.00" 0.13" 71.5° 39.3° 56.4° 59.7% 3.1 MPH 336.0w/m2
5/13/2011 0.23" 0.16" 0.00" 0.16" 77.7° 44.4° 62.5° 52.8% 3.1 MPH 344.0w/m2
5/14/2011 0.13" 0.09" 0.13" -0.01" 74.3° 48.4° 60.0° 60.0% 3.9 MPH 190.0w/m2
5/15/2011 0.29" 0.20" 0.00" 0.20" 79.4° 47.7° 63.3° 44.7% 8.9 MPH 342.0w/m2
5/16/2011 0.14" 0.10" 0.00" 0.10" 54.8° 43.2° 48.0° 59.1% 6.0 MPH 259.0w/m2
5/17/2011 0.05" 0.04" 0.30" -0.20" 51.0° 35.5° 43.5° 90.2% 4.0 MPH 140.0w/m2
5/18/2011 0.04" 0.03" 0.21" -0.14" 47.0° 43.0° 44.8° 93.6% 2.8 MPH 85.0w/m2
5/19/2011 0.07" 0.05" 0.78" -0.58" 54.6° 40.5° 45.7° 93.8% 2.6 MPH 156.0w/m2
5/20/2011 0.09" 0.07" 0.25" -0.13" 59.8° 40.8° 50.5° 81.2% 3.7 MPH 178.0w/m2
5/21/2011 0.19" 0.14" 0.00" 0.14" 69.3° 45.8° 58.2° 62.5% 3.2 MPH 328.0w/m2
5/22/2011 0.11" 0.08" 0.09" 0.01" 67.9° 51.0° 56.6° 79.1% 3.2 MPH 190.0w/m2
5/23/2011 0.11" 0.08" 0.02" 0.07" 65.5° 48.8° 54.5° 78.9% 5.5 MPH 191.0w/m2
5/24/2011 0.15" 0.11" 0.10" 0.03" 59.8° 44.3° 52.2° 72.1% 5.0 MPH 289.0w/m2
5/25/2011 0.20" 0.15" 0.00" 0.15" 69.3° 41.8° 57.1° 57.0% 6.0 MPH 305.0w/m2
5/26/2011 0.15" 0.11" 0.00" 0.11" 64.3° 47.6° 54.1° 51.1% 6.5 MPH 229.0w/m2
5/27/2011 0.14" 0.11" 0.00" 0.11" 64.5° 40.9° 52.5° 57.3% 2.5 MPH 223.0w/m2
5/28/2011 0.14" 0.11" 0.73" -0.48" 62.3° 40.9° 51.7° 74.7% 4.9 MPH 229.0w/m2
5/29/2011 0.07" 0.05" 0.47" -0.32" 50.1° 37.9° 42.9° 92.9% 3.6 MPH 141.0w/m2
5/30/2011 0.11" 0.09" 0.57" -0.37" 57.1° 34.8° 46.9° 77.6% 4.7 MPH 207.0w/m2
5/31/2011 0.23" 0.18" 0.00" 0.18" 74.7° 43.1° 60.1° 46.9% 6.2 MPH 302.0w/m2
Totals: 4.42" 3.09" 4.44" -0.46" 79.4° 26.8° 52.3° 66.2% 4.6 MPH 240.5w/m2